Time;durP1;ratioP1;P1;durP2;ratioP2;P2;SDS_P1;SDS_P2;PMS_P1;PMS_P2;Temp;Humidity;BMP_temperature;BMP_pressure;BME280_temperature;BME280_humidity;BME280_pressure;Samples;Min_cycle;Max_cycle;Signal;HPM_P1;HPM_P2
2022/01/08 00:01:53;;;;;;;;;;;23.90;45.20;;;;;;1586412;74;724;-67
2022/01/08 00:03:55;;;;;;;;;;;23.90;45.20;;;;;;1590663;74;1124;-67
2022/01/08 00:05:57;;;;;;;;;;;23.90;45.20;;;;;;1587226;74;772;-66
2022/01/08 00:07:58;;;;;;;;;;;23.90;45.30;;;;;;1588318;74;760;-67
2022/01/08 00:10:00;;;;;;;;;;;23.90;45.30;;;;;;1586816;74;740;-67
2022/01/08 00:12:02;;;;;;;;;;;23.90;45.30;;;;;;1591449;74;751;-67
2022/01/08 00:14:05;;;;;;;;;;;23.90;45.40;;;;;;1587723;74;1101;-67
2022/01/08 00:16:07;;;;;;;;;;;23.90;45.40;;;;;;1582223;74;1921;-67
2022/01/08 00:18:09;;;;;;;;;;;23.90;45.40;;;;;;1577813;75;789;-66
2022/01/08 00:20:11;;;;;;;;;;;23.90;45.40;;;;;;1577708;75;675;-66
2022/01/08 00:22:13;;;;;;;;;;;23.90;45.40;;;;;;1577769;75;721;-67
2022/01/08 00:24:15;;;;;;;;;;;23.90;45.50;;;;;;1578553;75;1152;-66
2022/01/08 00:26:17;;;;;;;;;;;23.90;45.40;;;;;;1573934;75;720;-67
2022/01/08 00:28:19;;;;;;;;;;;23.90;45.40;;;;;;1576273;75;764;-67
2022/01/08 00:30:21;;;;;;;;;;;23.90;45.40;;;;;;1575592;75;734;-66
2022/01/08 00:32:23;;;;;;;;;;;23.90;45.40;;;;;;1571931;75;772;-67
2022/01/08 00:34:25;;;;;;;;;;;23.90;45.40;;;;;;1578595;75;1090;-66
2022/01/08 00:36:27;;;;;;;;;;;23.90;45.50;;;;;;1580490;75;1938;-66
2022/01/08 00:38:28;;;;;;;;;;;23.90;45.50;;;;;;1578420;75;709;-67
2022/01/08 00:40:30;;;;;;;;;;;23.90;45.40;;;;;;1572747;75;677;-67
2022/01/08 00:42:32;;;;;;;;;;;23.90;45.50;;;;;;1574557;75;1133;-67
2022/01/08 00:44:34;;;;;;;;;;;24.00;45.50;;;;;;1581004;75;725;-68
2022/01/08 00:46:36;;;;;;;;;;;23.90;45.50;;;;;;1578049;75;660;-66
2022/01/08 00:48:38;;;;;;;;;;;23.90;45.60;;;;;;1581675;75;713;-67
2022/01/08 00:50:40;;;;;;;;;;;24.00;45.60;;;;;;1566575;75;722;-65
2022/01/08 00:52:42;;;;;;;;;;;23.90;45.60;;;;;;1575488;75;1133;-66
2022/01/08 00:54:44;;;;;;;;;;;23.90;45.60;;;;;;1576715;75;710;-66
2022/01/08 00:56:45;;;;;;;;;;;24.00;45.60;;;;;;1573771;75;1930;-69
2022/01/08 00:58:47;;;;;;;;;;;23.90;45.70;;;;;;1581895;75;678;-67
2022/01/08 01:00:49;;;;;;;;;;;24.00;45.70;;;;;;1574746;75;776;-68
2022/01/08 01:02:53;;;;;;;;;;;23.90;45.70;;;;;;1577733;75;1132;-67
2022/01/08 01:04:55;;;;;;;;;;;23.90;45.70;;;;;;1571917;74;1153;-67
2022/01/08 01:06:56;;;;;;;;;;;23.90;45.70;;;;;;1567082;75;792;-68
2022/01/08 01:08:58;;;;;;;;;;;23.90;45.70;;;;;;1574577;75;689;-68
2022/01/08 01:11:00;;;;;;;;;;;23.90;45.70;;;;;;1578209;75;674;-68
2022/01/08 01:13:02;;;;;;;;;;;23.90;45.70;;;;;;1582016;75;1138;-68
2022/01/08 01:15:04;;;;;;;;;;;23.90;45.80;;;;;;1576689;75;744;-68
2022/01/08 01:17:06;;;;;;;;;;;23.80;45.70;;;;;;1583357;74;1945;-68
2022/01/08 01:19:08;;;;;;;;;;;23.90;45.80;;;;;;1594790;74;751;-68
2022/01/08 01:21:10;;;;;;;;;;;23.80;45.70;;;;;;1597693;74;721;-67
2022/01/08 01:23:16;;;;;;;;;;;23.90;45.80;;;;;;1591615;74;1189;-68
2022/01/08 01:25:21;;;;;;;;;;;23.80;45.80;;;;;;1594682;74;1123;-68
2022/01/08 01:30:02;;;;;;;;;;;23.90;45.80;;;;;;1591402;73;866;-66
2022/01/08 01:41:41;;;;;;;;;;;23.80;45.90;;;;;;1594464;74;1672;-68
2022/01/08 01:48:10;;;;;;;;;;;23.80;46.00;;;;;;1589831;74;1658;-68
2022/01/08 01:50:12;;;;;;;;;;;23.80;46.00;;;;;;1597323;74;722;-67
2022/01/08 01:52:15;;;;;;;;;;;23.70;46.00;;;;;;1597309;74;706;-68
2022/01/08 01:54:17;;;;;;;;;;;23.80;46.00;;;;;;1592327;74;1115;-68
2022/01/08 01:56:19;;;;;;;;;;;23.80;46.00;;;;;;1593580;74;1945;-68
2022/01/08 01:58:21;;;;;;;;;;;23.80;46.00;;;;;;1592738;74;698;-67
2022/01/08 02:00:23;;;;;;;;;;;23.80;46.00;;;;;;1592634;74;680;-68
2022/01/08 02:02:25;;;;;;;;;;;23.80;46.00;;;;;;1591505;74;717;-68
2022/01/08 02:04:27;;;;;;;;;;;23.80;45.90;;;;;;1602010;74;1074;-67
2022/01/08 02:06:29;;;;;;;;;;;23.90;45.90;;;;;;1587419;74;767;-67
2022/01/08 02:08:31;;;;;;;;;;;23.80;45.80;;;;;;1590706;74;701;-68
2022/01/08 02:10:32;;;;;;;;;;;23.90;45.80;;;;;;1592074;74;703;-68
2022/01/08 02:12:34;;;;;;;;;;;23.90;45.80;;;;;;1591681;74;1153;-68
2022/01/08 02:14:37;;;;;;;;;;;23.90;45.90;;;;;;1592159;74;620;-68
2022/01/08 02:16:39;;;;;;;;;;;23.80;45.80;;;;;;1590378;74;1933;-68
2022/01/08 02:18:41;;;;;;;;;;;23.90;45.90;;;;;;1572959;75;1021;-67
2022/01/08 02:20:42;;;;;;;;;;;23.90;45.90;;;;;;1576417;75;747;-68
2022/01/08 02:22:44;;;;;;;;;;;23.90;45.90;;;;;;1578431;75;1137;-68
2022/01/08 02:24:46;;;;;;;;;;;23.90;45.90;;;;;;1577018;75;792;-70
2022/01/08 02:26:48;;;;;;;;;;;23.90;45.90;;;;;;1580727;74;635;-67
2022/01/08 02:28:50;;;;;;;;;;;23.90;45.80;;;;;;1581118;74;755;-68
2022/01/08 02:30:52;;;;;;;;;;;23.90;45.80;;;;;;1575451;75;803;-66
2022/01/08 02:32:54;;;;;;;;;;;23.90;45.90;;;;;;1565760;75;1192;-67
2022/01/08 02:34:56;;;;;;;;;;;23.90;45.80;;;;;;1576694;74;759;-66
2022/01/08 02:36:58;;;;;;;;;;;23.90;45.90;;;;;;1578505;75;1937;-69
2022/01/08 02:39:00;;;;;;;;;;;23.90;45.90;;;;;;1575642;75;706;-68
2022/01/08 02:41:04;;;;;;;;;;;24.00;45.90;;;;;;1581766;74;787;-69
2022/01/08 02:43:06;;;;;;;;;;;23.90;46.00;;;;;;1573995;75;1455;-67
2022/01/08 02:45:08;;;;;;;;;;;23.90;46.00;;;;;;1575806;75;718;-69
2022/01/08 02:47:10;;;;;;;;;;;23.90;46.00;;;;;;1581706;75;721;-68
2022/01/08 02:49:12;;;;;;;;;;;23.80;46.00;;;;;;1578681;75;736;-68
2022/01/08 02:51:14;;;;;;;;;;;23.90;46.10;;;;;;1577779;74;704;-68
2022/01/08 02:53:16;;;;;;;;;;;23.90;46.00;;;;;;1583796;74;1137;-68
2022/01/08 02:55:19;;;;;;;;;;;23.90;46.00;;;;;;1579482;75;737;-68
2022/01/08 02:57:20;;;;;;;;;;;23.90;46.00;;;;;;1576060;75;1918;-69
2022/01/08 02:59:22;;;;;;;;;;;23.90;46.10;;;;;;1578230;75;655;-68
2022/01/08 03:01:24;;;;;;;;;;;23.90;46.10;;;;;;1578613;75;791;-68
2022/01/08 03:03:26;;;;;;;;;;;23.90;46.10;;;;;;1581886;75;1179;-68
2022/01/08 03:05:28;;;;;;;;;;;23.90;46.00;;;;;;1578147;75;763;-69
2022/01/08 03:07:30;;;;;;;;;;;23.90;46.10;;;;;;1580894;75;760;-68
2022/01/08 03:09:36;;;;;;;;;;;23.90;46.20;;;;;;1577839;75;706;-69
2022/01/08 03:11:35;;;;;;;;;;;23.80;46.10;;;;;;1574701;75;1122;-69
2022/01/08 03:13:37;;;;;;;;;;;23.80;46.10;;;;;;1573525;75;1140;-70
2022/01/08 03:15:39;;;;;;;;;;;23.80;46.10;;;;;;1575422;75;805;-70
2022/01/08 03:17:41;;;;;;;;;;;23.80;46.20;;;;;;1580472;75;1936;-67
2022/01/08 03:19:43;;;;;;;;;;;23.80;46.10;;;;;;1587181;74;709;-68
2022/01/08 03:21:51;;;;;;;;;;;23.80;46.10;;;;;;1579211;75;748;-66
2022/01/08 03:23:57;;;;;;;;;;;23.80;46.10;;;;;;1586308;75;1559;-69
2022/01/08 03:25:57;;;;;;;;;;;23.70;46.10;;;;;;1583555;75;948;-68
2022/01/08 03:27:59;;;;;;;;;;;23.80;46.20;;;;;;1582789;74;779;-68
2022/01/08 03:30:00;;;;;;;;;;;23.80;46.20;;;;;;1579067;75;759;-69
2022/01/08 03:32:02;;;;;;;;;;;23.80;46.30;;;;;;1582523;75;813;-68
2022/01/08 03:34:05;;;;;;;;;;;23.90;46.30;;;;;;1580846;75;1143;-68
2022/01/08 03:36:07;;;;;;;;;;;23.80;46.20;;;;;;1581296;75;779;-68
2022/01/08 03:38:09;;;;;;;;;;;23.90;46.30;;;;;;1582564;75;1942;-68
2022/01/08 03:40:11;;;;;;;;;;;23.90;46.20;;;;;;1580280;75;718;-68
2022/01/08 03:42:13;;;;;;;;;;;23.90;46.20;;;;;;1576470;75;696;-67
2022/01/08 03:44:14;;;;;;;;;;;23.80;46.00;;;;;;1580165;75;1101;-67
2022/01/08 03:46:19;;;;;;;;;;;23.90;46.00;;;;;;1585881;75;624;-67
2022/01/08 03:50:29;;;;;;;;;;;23.90;46.00;;;;;;1588598;74;850;-68
2022/01/08 03:52:31;;;;;;;;;;;23.90;45.90;;;;;;1578164;75;746;-69
2022/01/08 03:54:33;;;;;;;;;;;24.00;45.90;;;;;;1582596;75;747;-68
2022/01/08 03:56:35;;;;;;;;;;;24.00;45.80;;;;;;1583443;74;704;-68
2022/01/08 03:58:37;;;;;;;;;;;23.90;45.80;;;;;;1581652;74;1940;-66
2022/01/08 04:00:39;;;;;;;;;;;23.90;45.70;;;;;;1580401;74;795;-68
2022/01/08 04:02:41;;;;;;;;;;;23.90;45.70;;;;;;1585432;75;1121;-68
2022/01/08 04:04:42;;;;;;;;;;;24.00;45.70;;;;;;1545139;73;3074;-70
2022/01/08 04:06:44;;;;;;;;;;;23.90;45.90;;;;;;1530376;76;734;-67
2022/01/08 04:08:46;;;;;;;;;;;23.90;45.90;;;;;;1527435;78;735;-67
2022/01/08 04:10:48;;;;;;;;;;;23.80;46.00;;;;;;1526268;76;745;-67
2022/01/08 04:12:55;;;;;;;;;;;23.80;46.10;;;;;;1514747;76;738;-67
2022/01/08 04:15:04;;;;;;;;;;;23.80;46.10;;;;;;1503848;78;1187;-67
2022/01/08 04:16:57;;;;;;;;;;;23.70;46.30;;;;;;1479923;78;1930;-68
2022/01/08 04:18:59;;;;;;;;;;;23.60;46.30;;;;;;1505805;78;840;-67
2022/01/08 04:23:04;;;;;;;;;;;23.50;46.50;;;;;;1512299;78;854;-68
2022/01/08 04:25:06;;;;;;;;;;;23.50;46.60;;;;;;1492878;78;826;-71
2022/01/08 04:27:08;;;;;;;;;;;23.50;46.70;;;;;;1487462;78;758;-69
2022/01/08 04:29:10;;;;;;;;;;;23.40;46.70;;;;;;1503273;78;825;-69
2022/01/08 04:31:13;;;;;;;;;;;23.40;46.70;;;;;;1493720;78;723;-69
2022/01/08 04:33:15;;;;;;;;;;;23.30;46.90;;;;;;1506282;78;1160;-68
2022/01/08 04:35:17;;;;;;;;;;;23.40;46.90;;;;;;1494458;78;690;-68
2022/01/08 04:37:19;;;;;;;;;;;23.40;47.00;;;;;;1504547;78;1940;-70
2022/01/08 04:39:21;;;;;;;;;;;23.40;46.90;;;;;;1498603;78;742;-68
2022/01/08 04:41:23;;;;;;;;;;;23.50;47.00;;;;;;1503264;78;725;-69
2022/01/08 04:43:25;;;;;;;;;;;23.50;47.00;;;;;;1505831;78;1203;-68
2022/01/08 04:45:30;;;;;;;;;;;23.50;46.90;;;;;;1492698;78;790;-68
2022/01/08 04:47:32;;;;;;;;;;;23.50;46.80;;;;;;1510384;78;1106;-68
2022/01/08 04:49:34;;;;;;;;;;;23.50;46.80;;;;;;1496591;78;697;-69
2022/01/08 04:51:36;;;;;;;;;;;23.40;46.80;;;;;;1516047;78;821;-70
2022/01/08 04:53:38;;;;;;;;;;;23.50;46.90;;;;;;1496226;78;1139;-71
2022/01/08 04:55:39;;;;;;;;;;;23.40;46.80;;;;;;1513141;78;751;-72
2022/01/08 04:57:41;;;;;;;;;;;23.40;46.80;;;;;;1512631;78;1937;-69
2022/01/08 04:59:43;;;;;;;;;;;23.30;46.90;;;;;;1512414;78;719;-69
2022/01/08 05:01:45;;;;;;;;;;;23.30;46.90;;;;;;1510913;78;773;-69
2022/01/08 05:03:47;;;;;;;;;;;23.30;47.00;;;;;;1515357;78;1183;-69
2022/01/08 05:05:49;;;;;;;;;;;23.30;47.10;;;;;;1500623;78;791;-65
2022/01/08 05:07:51;;;;;;;;;;;23.30;47.00;;;;;;1510985;78;662;-71
2022/01/08 05:09:52;;;;;;;;;;;23.30;47.10;;;;;;1512129;78;728;-70
2022/01/08 05:11:54;;;;;;;;;;;23.30;47.10;;;;;;1520296;78;758;-67
2022/01/08 05:13:56;;;;;;;;;;;23.30;47.10;;;;;;1513775;78;1170;-68
2022/01/08 05:16:00;;;;;;;;;;;23.30;47.00;;;;;;1500717;78;747;-68
2022/01/08 05:18:03;;;;;;;;;;;23.30;46.90;;;;;;1509884;78;1912;-70
2022/01/08 05:20:06;;;;;;;;;;;23.30;46.90;;;;;;1503668;78;1124;-68
2022/01/08 05:22:10;;;;;;;;;;;23.30;46.90;;;;;;1504764;78;763;-67
2022/01/08 05:24:11;;;;;;;;;;;23.30;46.90;;;;;;1508021;78;1151;-71
2022/01/08 05:26:13;;;;;;;;;;;23.30;47.00;;;;;;1499918;78;828;-68
2022/01/08 05:28:15;;;;;;;;;;;23.30;46.90;;;;;;1509168;78;789;-69
2022/01/08 05:30:18;;;;;;;;;;;23.30;46.90;;;;;;1509170;77;818;-68
2022/01/08 05:32:20;;;;;;;;;;;23.30;46.90;;;;;;1509973;78;671;-68
2022/01/08 05:34:21;;;;;;;;;;;23.30;46.80;;;;;;1517102;78;1141;-71
2022/01/08 05:36:23;;;;;;;;;;;23.30;46.80;;;;;;1513334;78;806;-69
2022/01/08 05:38:25;;;;;;;;;;;23.30;46.80;;;;;;1512880;78;1939;-69
2022/01/08 05:40:27;;;;;;;;;;;23.30;46.80;;;;;;1518108;78;800;-69
2022/01/08 05:42:29;;;;;;;;;;;23.30;46.80;;;;;;1509990;78;683;-68
2022/01/08 05:44:31;;;;;;;;;;;23.30;46.80;;;;;;1517043;77;1143;-71
2022/01/08 05:46:33;;;;;;;;;;;23.30;46.90;;;;;;1509707;78;777;-68
2022/01/08 05:48:35;;;;;;;;;;;23.30;46.90;;;;;;1500073;78;725;-69
2022/01/08 05:50:36;;;;;;;;;;;23.30;46.70;;;;;;1516159;78;745;-69
2022/01/08 05:52:38;;;;;;;;;;;23.30;46.80;;;;;;1508006;78;791;-68
2022/01/08 05:54:42;;;;;;;;;;;23.30;46.80;;;;;;1510344;78;1146;-67
2022/01/08 05:56:44;;;;;;;;;;;23.30;46.90;;;;;;1513638;78;782;-70
2022/01/08 05:58:46;;;;;;;;;;;23.30;46.90;;;;;;1487655;78;1924;-70
2022/01/08 06:00:47;;;;;;;;;;;23.30;47.00;;;;;;1510059;78;747;-69
2022/01/08 06:02:49;;;;;;;;;;;23.30;47.00;;;;;;1510122;78;748;-67
2022/01/08 06:04:51;;;;;;;;;;;23.30;47.00;;;;;;1518087;78;1113;-68
2022/01/08 06:06:53;;;;;;;;;;;23.30;46.90;;;;;;1503806;78;735;-68
2022/01/08 06:08:55;;;;;;;;;;;23.30;47.00;;;;;;1509776;78;745;-69
2022/01/08 06:10:57;;;;;;;;;;;23.30;46.90;;;;;;1514040;78;667;-69
2022/01/08 06:12:59;;;;;;;;;;;23.20;46.80;;;;;;1522021;78;837;-70
2022/01/08 06:15:00;;;;;;;;;;;23.30;46.90;;;;;;1516650;78;1113;-69
2022/01/08 06:17:02;;;;;;;;;;;23.30;46.90;;;;;;1513300;78;775;-68
2022/01/08 06:19:08;;;;;;;;;;;23.20;46.80;;;;;;1514004;78;1950;-69
2022/01/08 06:21:10;;;;;;;;;;;23.30;46.90;;;;;;1513125;78;671;-69
2022/01/08 06:23:12;;;;;;;;;;;23.30;46.90;;;;;;1520842;78;1089;-69
2022/01/08 06:25:14;;;;;;;;;;;23.30;47.00;;;;;;1497717;78;726;-68
2022/01/08 06:27:16;;;;;;;;;;;23.30;46.90;;;;;;1507027;78;730;-68
2022/01/08 06:29:18;;;;;;;;;;;23.20;46.80;;;;;;1511587;78;733;-68
2022/01/08 06:31:20;;;;;;;;;;;23.30;46.90;;;;;;1511813;78;711;-69
2022/01/08 06:33:22;;;;;;;;;;;23.20;46.80;;;;;;1503768;78;1153;-70
2022/01/08 06:35:24;;;;;;;;;;;23.20;46.90;;;;;;1498056;78;684;-64
2022/01/08 06:37:25;;;;;;;;;;;23.30;46.90;;;;;;1506715;78;726;-69
2022/01/08 06:39:27;;;;;;;;;;;23.20;46.90;;;;;;1514990;78;1945;-70
2022/01/08 06:41:29;;;;;;;;;;;23.20;46.80;;;;;;1509183;78;740;-69
2022/01/08 06:43:31;;;;;;;;;;;23.20;46.80;;;;;;1514572;78;1134;-70
2022/01/08 06:45:33;;;;;;;;;;;23.30;47.00;;;;;;1509688;78;646;-69
2022/01/08 06:47:35;;;;;;;;;;;23.30;47.10;;;;;;1516933;78;815;-69
2022/01/08 06:49:37;;;;;;;;;;;23.30;47.10;;;;;;1500820;78;796;-70
2022/01/08 06:51:39;;;;;;;;;;;23.20;47.00;;;;;;1516646;78;755;-68
2022/01/08 06:53:40;;;;;;;;;;;23.30;47.10;;;;;;1500165;78;1152;-67
2022/01/08 06:55:43;;;;;;;;;;;23.20;47.00;;;;;;1509480;78;730;-67
2022/01/08 06:57:45;;;;;;;;;;;23.20;47.00;;;;;;1509155;78;741;-66
2022/01/08 06:59:47;;;;;;;;;;;23.30;47.00;;;;;;1509892;78;845;-67
2022/01/08 07:01:49;;;;;;;;;;;23.30;47.00;;;;;;1509809;78;743;-69
2022/01/08 07:03:50;;;;;;;;;;;23.30;46.90;;;;;;1510034;78;1201;-70
2022/01/08 07:05:52;;;;;;;;;;;23.30;46.80;;;;;;1503733;78;1011;-71
2022/01/08 07:07:54;;;;;;;;;;;23.30;46.80;;;;;;1503203;78;811;-69
2022/01/08 07:09:56;;;;;;;;;;;23.30;46.80;;;;;;1493562;78;795;-72
2022/01/08 07:11:58;;;;;;;;;;;23.30;46.80;;;;;;1508067;78;742;-70
2022/01/08 07:14:01;;;;;;;;;;;23.30;46.90;;;;;;1499439;78;1101;-70
2022/01/08 07:16:04;;;;;;;;;;;23.30;46.80;;;;;;1488126;78;822;-70
2022/01/08 07:18:05;;;;;;;;;;;23.40;46.80;;;;;;1502415;78;1910;-70
2022/01/08 07:20:08;;;;;;;;;;;23.40;46.80;;;;;;1504509;78;798;-68
2022/01/08 07:22:10;;;;;;;;;;;23.40;46.70;;;;;;1506587;78;716;-68
2022/01/08 07:24:11;;;;;;;;;;;23.40;46.80;;;;;;1509131;78;1154;-68
2022/01/08 07:26:13;;;;;;;;;;;23.30;46.70;;;;;;1501323;78;826;-69
2022/01/08 07:28:15;;;;;;;;;;;23.40;46.80;;;;;;1502078;78;743;-69
2022/01/08 07:30:17;;;;;;;;;;;23.40;46.70;;;;;;1505717;78;726;-68
2022/01/08 07:32:19;;;;;;;;;;;23.40;46.70;;;;;;1502618;78;742;-68
2022/01/08 07:34:21;;;;;;;;;;;23.40;46.70;;;;;;1500512;78;1256;-68
2022/01/08 07:36:23;;;;;;;;;;;23.50;46.80;;;;;;1495488;78;706;-68
2022/01/08 07:38:25;;;;;;;;;;;23.40;46.70;;;;;;1499073;78;1929;-68
2022/01/08 07:40:26;;;;;;;;;;;23.40;46.70;;;;;;1502649;78;710;-69
2022/01/08 07:42:28;;;;;;;;;;;23.40;46.60;;;;;;1492404;78;775;-68
2022/01/08 07:44:30;;;;;;;;;;;23.40;46.70;;;;;;1490574;78;1171;-70
2022/01/08 07:46:32;;;;;;;;;;;23.30;46.70;;;;;;1490047;78;730;-69
2022/01/08 07:48:34;;;;;;;;;;;23.30;46.70;;;;;;1489898;78;741;-68
2022/01/08 07:50:36;;;;;;;;;;;23.40;46.70;;;;;;1490618;78;694;-68
2022/01/08 07:52:38;;;;;;;;;;;23.40;46.70;;;;;;1493134;78;765;-69
2022/01/08 07:54:40;;;;;;;;;;;23.40;46.60;;;;;;1490619;78;1153;-70
2022/01/08 07:56:42;;;;;;;;;;;23.40;46.60;;;;;;1490508;78;851;-68
2022/01/08 07:58:44;;;;;;;;;;;23.40;46.60;;;;;;1490018;78;1934;-67
2022/01/08 08:00:46;;;;;;;;;;;23.40;46.70;;;;;;1490683;78;806;-68
2022/01/08 08:02:48;;;;;;;;;;;23.40;46.60;;;;;;1490674;78;786;-68
2022/01/08 08:04:50;;;;;;;;;;;23.50;46.70;;;;;;1497227;78;1145;-71
2022/01/08 08:06:52;;;;;;;;;;;23.60;46.50;;;;;;1492764;78;782;-70
2022/01/08 08:08:53;;;;;;;;;;;23.50;46.40;;;;;;1493711;78;723;-68
2022/01/08 08:10:55;;;;;;;;;;;23.50;46.50;;;;;;1492048;78;826;-68
2022/01/08 08:12:58;;;;;;;;;;;23.50;46.50;;;;;;1493734;78;749;-69
2022/01/08 08:15:00;;;;;;;;;;;23.50;46.50;;;;;;1492105;78;1137;-70
2022/01/08 08:17:02;;;;;;;;;;;23.50;46.40;;;;;;1493759;78;805;-68
2022/01/08 08:19:04;;;;;;;;;;;23.50;46.40;;;;;;1493098;78;1962;-69
2022/01/08 08:21:05;;;;;;;;;;;23.60;46.20;;;;;;1493726;78;773;-68
2022/01/08 08:23:07;;;;;;;;;;;23.60;46.10;;;;;;1492005;78;1147;-71
2022/01/08 08:25:14;;;;;;;;;;;23.70;46.20;;;;;;1493683;78;751;-68
2022/01/08 08:27:13;;;;;;;;;;;23.70;46.10;;;;;;1489965;78;1602;-68
2022/01/08 08:29:15;;;;;;;;;;;23.70;46.10;;;;;;1502453;78;703;-68
2022/01/08 08:31:17;;;;;;;;;;;23.70;46.00;;;;;;1494576;78;771;-69
2022/01/08 08:33:19;;;;;;;;;;;23.70;46.00;;;;;;1494646;78;1255;-68
2022/01/08 08:35:21;;;;;;;;;;;23.60;45.70;;;;;;1492109;78;773;-68
2022/01/08 08:37:22;;;;;;;;;;;23.70;45.80;;;;;;1494682;78;807;-67
2022/01/08 08:39:25;;;;;;;;;;;23.70;45.90;;;;;;1494708;78;1927;-68
2022/01/08 08:41:27;;;;;;;;;;;23.70;45.80;;;;;;1492419;78;796;-67
2022/01/08 08:43:29;;;;;;;;;;;23.70;45.80;;;;;;1494489;78;1144;-68
2022/01/08 08:45:31;;;;;;;;;;;23.70;45.90;;;;;;1494521;78;745;-70
2022/01/08 08:47:32;;;;;;;;;;;23.80;46.00;;;;;;1494698;78;717;-70
2022/01/08 08:49:34;;;;;;;;;;;23.80;45.90;;;;;;1494184;78;671;-68
2022/01/08 08:51:36;;;;;;;;;;;23.80;45.80;;;;;;1493224;78;804;-70
2022/01/08 08:53:38;;;;;;;;;;;23.80;45.70;;;;;;1494706;78;1267;-69
2022/01/08 08:55:40;;;;;;;;;;;23.90;45.50;;;;;;1490033;78;839;-70
2022/01/08 08:57:42;;;;;;;;;;;23.90;45.40;;;;;;1492416;78;683;-68
2022/01/08 08:59:44;;;;;;;;;;;23.90;45.30;;;;;;1493471;78;1962;-68
2022/01/08 09:01:46;;;;;;;;;;;23.90;45.30;;;;;;1493233;78;781;-67
2022/01/08 09:03:48;;;;;;;;;;;23.90;45.50;;;;;;1494316;78;1127;-69
2022/01/08 09:05:50;;;;;;;;;;;23.90;45.30;;;;;;1493632;78;890;-72
2022/01/08 09:07:52;;;;;;;;;;;24.00;45.00;;;;;;1494453;78;796;-68
2022/01/08 09:09:53;;;;;;;;;;;24.00;44.70;;;;;;1494822;78;754;-69
2022/01/08 09:11:55;;;;;;;;;;;24.10;44.70;;;;;;1494718;78;761;-70
2022/01/08 09:13:57;;;;;;;;;;;24.10;44.50;;;;;;1490506;78;1205;-68
2022/01/08 09:15:59;;;;;;;;;;;24.20;44.50;;;;;;1495047;78;767;-68
2022/01/08 09:18:01;;;;;;;;;;;24.10;44.40;;;;;;1494347;78;732;-68
2022/01/08 09:20:04;;;;;;;;;;;24.10;44.40;;;;;;1493226;78;1946;-68
2022/01/08 09:22:06;;;;;;;;;;;24.10;44.40;;;;;;1502240;78;840;-69
2022/01/08 09:24:07;;;;;;;;;;;24.00;44.30;;;;;;1492582;78;1138;-68
2022/01/08 09:26:09;;;;;;;;;;;24.00;44.30;;;;;;1493301;78;808;-68
2022/01/08 09:28:11;;;;;;;;;;;24.00;44.40;;;;;;1503766;78;780;-68
2022/01/08 09:30:13;;;;;;;;;;;24.00;44.40;;;;;;1502875;78;668;-68
2022/01/08 09:32:17;;;;;;;;;;;24.00;44.40;;;;;;1505299;78;808;-69
2022/01/08 09:34:19;;;;;;;;;;;24.00;44.40;;;;;;1500711;78;1170;-64
2022/01/08 09:36:22;;;;;;;;;;;24.00;44.40;;;;;;1505419;78;798;-70
2022/01/08 09:38:24;;;;;;;;;;;23.90;44.40;;;;;;1502562;78;755;-68
2022/01/08 09:40:26;;;;;;;;;;;23.90;44.30;;;;;;1502732;78;1944;-68
2022/01/08 09:42:28;;;;;;;;;;;23.90;44.30;;;;;;1502700;78;727;-68
2022/01/08 09:44:30;;;;;;;;;;;23.90;44.40;;;;;;1489439;78;1161;-68
2022/01/08 09:46:32;;;;;;;;;;;23.90;44.40;;;;;;1509973;78;698;-68
2022/01/08 09:48:33;;;;;;;;;;;23.90;44.30;;;;;;1495582;78;739;-71
2022/01/08 09:50:35;;;;;;;;;;;23.90;44.30;;;;;;1498776;78;741;-68
2022/01/08 09:52:37;;;;;;;;;;;23.90;44.40;;;;;;1505536;78;840;-68
2022/01/08 09:54:39;;;;;;;;;;;23.90;44.40;;;;;;1479378;78;1153;-70
2022/01/08 09:56:41;;;;;;;;;;;23.90;44.40;;;;;;1485612;78;726;-68
2022/01/08 09:58:43;;;;;;;;;;;23.90;44.40;;;;;;1494438;78;799;-67
2022/01/08 10:00:45;;;;;;;;;;;23.90;44.40;;;;;;1490232;78;1919;-67
2022/01/08 10:02:47;;;;;;;;;;;23.90;44.40;;;;;;1481442;78;733;-67
2022/01/08 10:04:49;;;;;;;;;;;24.00;44.50;;;;;;1527789;74;3068;-66
2022/01/08 10:06:51;;;;;;;;;;;24.00;44.60;;;;;;1545200;76;700;-68
2022/01/08 10:08:53;;;;;;;;;;;24.00;44.60;;;;;;1529416;75;727;-71
2022/01/08 10:10:56;;;;;;;;;;;23.90;44.60;;;;;;1550563;76;717;-68
2022/01/08 10:13:00;;;;;;;;;;;23.90;44.70;;;;;;1551618;75;1021;-67
2022/01/08 10:17:41;;;;;;;;;;;23.90;44.80;;;;;;1510810;77;1638;-67
2022/01/08 10:19:43;;;;;;;;;;;23.90;44.90;;;;;;1513308;76;1945;-66
2022/01/08 10:21:45;;;;;;;;;;;23.90;45.00;;;;;;1516191;77;724;-68
2022/01/08 10:23:48;;;;;;;;;;;23.90;45.00;;;;;;1506957;76;1146;-68
2022/01/08 10:26:03;;;;;;;;;;;23.90;45.10;;;;;;1513857;76;1007;-66
2022/01/08 10:28:05;;;;;;;;;;;23.90;45.10;;;;;;1513734;77;726;-64
2022/01/08 10:30:08;;;;;;;;;;;23.90;45.10;;;;;;1516003;77;702;-65
2022/01/08 10:32:11;;;;;;;;;;;23.90;45.10;;;;;;1510422;76;715;-65
2022/01/08 10:34:23;;;;;;;;;;;23.90;45.20;;;;;;1519968;76;1147;-66
2022/01/08 10:36:26;;;;;;;;;;;23.90;45.20;;;;;;1515365;76;797;-67
2022/01/08 10:38:29;;;;;;;;;;;23.80;45.20;;;;;;1521019;77;727;-66
2022/01/08 10:40:35;;;;;;;;;;;23.90;45.30;;;;;;1523701;77;1906;-66
2022/01/08 10:42:38;;;;;;;;;;;23.90;45.30;;;;;;1518559;76;749;-66
2022/01/08 10:44:40;;;;;;;;;;;23.80;45.20;;;;;;1507957;77;1100;-65
2022/01/08 10:46:47;;;;;;;;;;;23.80;45.20;;;;;;1505606;77;724;-66
2022/01/08 10:48:49;;;;;;;;;;;23.90;45.40;;;;;;1517615;76;783;-66
2022/01/08 10:50:51;;;;;;;;;;;23.90;45.30;;;;;;1517265;77;729;-65
2022/01/08 10:52:53;;;;;;;;;;;23.90;45.40;;;;;;1523123;77;750;-66
2022/01/08 10:54:55;;;;;;;;;;;23.90;45.30;;;;;;1524114;77;1110;-66
2022/01/08 10:57:03;;;;;;;;;;;23.90;45.30;;;;;;1519595;76;727;-66
2022/01/08 10:59:08;;;;;;;;;;;23.90;45.50;;;;;;1511746;76;1149;-65
2022/01/08 11:01:10;;;;;;;;;;;23.90;45.40;;;;;;1513648;77;1938;-66
2022/01/08 11:03:12;;;;;;;;;;;23.90;45.40;;;;;;1520555;77;669;-66
2022/01/08 11:05:14;;;;;;;;;;;23.90;45.40;;;;;;1516719;76;1093;-67
2022/01/08 11:07:17;;;;;;;;;;;23.90;45.40;;;;;;1514167;77;715;-68
2022/01/08 11:09:18;;;;;;;;;;;23.90;45.40;;;;;;1517556;77;804;-68
2022/01/08 11:11:27;;;;;;;;;;;23.90;45.40;;;;;;1516973;77;803;-66
2022/01/08 11:13:25;;;;;;;;;;;24.00;45.30;;;;;;1519844;77;1575;-63
2022/01/08 11:15:48;;;;;;;;;;;24.00;45.30;;;;;;1520671;76;1071;-67
2022/01/08 11:17:40;;;;;;;;;;;23.90;45.30;;;;;;1515382;77;1714;-67
2022/01/08 11:19:46;;;;;;;;;;;24.00;45.30;;;;;;1520812;76;1937;-66
2022/01/08 11:21:52;;;;;;;;;;;24.00;45.20;;;;;;1524900;77;765;-68
2022/01/08 11:23:51;;;;;;;;;;;24.00;45.20;;;;;;1517472;77;1226;-66
2022/01/08 11:25:53;;;;;;;;;;;24.00;45.20;;;;;;1520089;77;795;-67
2022/01/08 11:28:02;;;;;;;;;;;24.00;45.10;;;;;;1521913;76;827;-67
2022/01/08 11:30:05;;;;;;;;;;;24.00;45.20;;;;;;1520541;76;709;-67
2022/01/08 11:32:07;;;;;;;;;;;24.00;45.20;;;;;;1519937;76;1849;-67
2022/01/08 11:34:12;;;;;;;;;;;24.00;45.20;;;;;;1519435;76;1125;-67
2022/01/08 11:36:14;;;;;;;;;;;24.00;45.20;;;;;;1518720;76;1650;-66
2022/01/08 11:38:18;;;;;;;;;;;24.00;45.20;;;;;;1520383;77;688;-67
2022/01/08 11:40:21;;;;;;;;;;;24.00;45.40;;;;;;1520585;77;1905;-67
2022/01/08 11:42:23;;;;;;;;;;;24.00;45.40;;;;;;1519834;77;760;-66
2022/01/08 11:44:25;;;;;;;;;;;24.10;45.50;;;;;;1521539;76;1151;-67
2022/01/08 11:46:26;;;;;;;;;;;24.20;45.40;;;;;;1514075;77;1056;-67
2022/01/08 11:48:35;;;;;;;;;;;24.20;45.40;;;;;;1519119;76;726;-65
2022/01/08 11:50:37;;;;;;;;;;;24.20;45.30;;;;;;1525002;77;747;-68
2022/01/08 11:52:39;;;;;;;;;;;24.20;45.30;;;;;;1516447;77;729;-66
2022/01/08 11:54:42;;;;;;;;;;;24.20;45.40;;;;;;1501227;77;1138;-66
2022/01/08 11:56:44;;;;;;;;;;;24.20;45.40;;;;;;1513526;76;1526;-67
2022/01/08 11:58:46;;;;;;;;;;;24.20;45.50;;;;;;1512018;76;705;-66
2022/01/08 12:00:50;;;;;;;;;;;24.20;45.40;;;;;;1485571;79;1933;-66
2022/01/08 12:02:52;;;;;;;;;;;24.20;45.40;;;;;;1516198;77;722;-68
2022/01/08 12:04:54;;;;;;;;;;;24.20;45.40;;;;;;1524877;76;1191;-67
2022/01/08 12:06:55;;;;;;;;;;;24.20;45.50;;;;;;1510040;76;712;-66
2022/01/08 12:09:07;;;;;;;;;;;24.20;45.50;;;;;;1520512;77;714;-66
2022/01/08 12:11:03;;;;;;;;;;;24.20;45.60;;;;;;1514453;77;1580;-66
2022/01/08 12:13:05;;;;;;;;;;;24.20;45.60;;;;;;1517870;76;729;-66
2022/01/08 12:15:07;;;;;;;;;;;24.20;45.60;;;;;;1511663;77;1147;-66
2022/01/08 12:17:17;;;;;;;;;;;24.10;45.70;;;;;;1507811;76;766;-66
2022/01/08 12:19:32;;;;;;;;;;;24.20;45.40;;;;;;1520497;76;730;-66
2022/01/08 12:21:36;;;;;;;;;;;24.20;45.40;;;;;;1517432;77;1903;-66
2022/01/08 12:23:38;;;;;;;;;;;24.10;45.60;;;;;;1510050;77;1065;-65
2022/01/08 12:25:41;;;;;;;;;;;24.20;45.70;;;;;;1508614;77;795;-65
2022/01/08 12:27:45;;;;;;;;;;;24.10;45.80;;;;;;1522624;76;726;-65
2022/01/08 12:29:47;;;;;;;;;;;23.90;46.30;;;;;;1525923;77;1490;-66
2022/01/08 12:31:50;;;;;;;;;;;24.00;46.50;;;;;;1521063;77;721;-66
2022/01/08 12:34:15;;;;;;;;;;;24.00;46.40;;;;;;1519848;76;1145;-66